sensor_id;sensor_type;location;lat;lon;timestamp;P1;durP1;ratioP1;P2;durP2;ratioP2
4569;SDS011;2297;51.442;6.996;2023-08-06T00:00:19;8.43;;;4.07;;
4569;SDS011;2297;51.442;6.996;2023-08-06T00:02:46;4.85;;;2.90;;
4569;SDS011;2297;51.442;6.996;2023-08-06T00:05:13;5.75;;;3.50;;
4569;SDS011;2297;51.442;6.996;2023-08-06T00:07:42;4.82;;;3.30;;
4569;SDS011;2297;51.442;6.996;2023-08-06T00:10:11;5.07;;;3.25;;
4569;SDS011;2297;51.442;6.996;2023-08-06T00:12:37;5.70;;;3.55;;
4569;SDS011;2297;51.442;6.996;2023-08-06T00:15:04;5.70;;;3.20;;
4569;SDS011;2297;51.442;6.996;2023-08-06T00:17:32;6.13;;;3.60;;
4569;SDS011;2297;51.442;6.996;2023-08-06T00:19:59;7.55;;;3.50;;
4569;SDS011;2297;51.442;6.996;2023-08-06T00:22:29;5.05;;;3.20;;
4569;SDS011;2297;51.442;6.996;2023-08-06T00:24:56;8.10;;;3.30;;
4569;SDS011;2297;51.442;6.996;2023-08-06T00:27:25;6.30;;;3.53;;
4569;SDS011;2297;51.442;6.996;2023-08-06T00:29:51;6.32;;;3.00;;
4569;SDS011;2297;51.442;6.996;2023-08-06T00:32:18;4.43;;;3.42;;
4569;SDS011;2297;51.442;6.996;2023-08-06T00:34:45;5.75;;;3.15;;
4569;SDS011;2297;51.442;6.996;2023-08-06T00:37:14;4.72;;;3.60;;
4569;SDS011;2297;51.442;6.996;2023-08-06T00:39:41;9.63;;;3.47;;
4569;SDS011;2297;51.442;6.996;2023-08-06T00:42:07;8.35;;;3.55;;
4569;SDS011;2297;51.442;6.996;2023-08-06T00:44:35;6.95;;;3.40;;
4569;SDS011;2297;51.442;6.996;2023-08-06T00:47:02;9.40;;;3.47;;
4569;SDS011;2297;51.442;6.996;2023-08-06T00:49:29;6.05;;;3.28;;
4569;SDS011;2297;51.442;6.996;2023-08-06T00:51:56;4.28;;;3.00;;
4569;SDS011;2297;51.442;6.996;2023-08-06T00:54:24;4.38;;;3.20;;
4569;SDS011;2297;51.442;6.996;2023-08-06T00:56:52;5.15;;;3.40;;
4569;SDS011;2297;51.442;6.996;2023-08-06T00:59:19;4.63;;;2.95;;
4569;SDS011;2297;51.442;6.996;2023-08-06T01:01:47;7.43;;;3.85;;
4569;SDS011;2297;51.442;6.996;2023-08-06T01:04:15;4.70;;;3.20;;
4569;SDS011;2297;51.442;6.996;2023-08-06T01:06:43;5.85;;;3.45;;
4569;SDS011;2297;51.442;6.996;2023-08-06T01:09:18;4.45;;;2.95;;
4569;SDS011;2297;51.442;6.996;2023-08-06T01:11:59;6.70;;;3.10;;
4569;SDS011;2297;51.442;6.996;2023-08-06T01:14:33;7.07;;;3.10;;
4569;SDS011;2297;51.442;6.996;2023-08-06T01:17:09;4.68;;;3.15;;
4569;SDS011;2297;51.442;6.996;2023-08-06T01:19:37;8.32;;;3.63;;
4569;SDS011;2297;51.442;6.996;2023-08-06T01:22:05;4.80;;;3.33;;
4569;SDS011;2297;51.442;6.996;2023-08-06T01:24:32;6.68;;;2.97;;
4569;SDS011;2297;51.442;6.996;2023-08-06T01:26:59;6.82;;;3.50;;
4569;SDS011;2297;51.442;6.996;2023-08-06T01:29:34;3.85;;;3.00;;
4569;SDS011;2297;51.442;6.996;2023-08-06T01:32:05;6.22;;;3.30;;
4569;SDS011;2297;51.442;6.996;2023-08-06T01:34:35;7.75;;;3.42;;
4569;SDS011;2297;51.442;6.996;2023-08-06T01:37:06;5.70;;;3.10;;
4569;SDS011;2297;51.442;6.996;2023-08-06T01:39:33;7.68;;;2.85;;
4569;SDS011;2297;51.442;6.996;2023-08-06T01:42:00;3.40;;;2.70;;
4569;SDS011;2297;51.442;6.996;2023-08-06T01:44:27;3.20;;;2.72;;
4569;SDS011;2297;51.442;6.996;2023-08-06T01:46:54;5.93;;;3.13;;
4569;SDS011;2297;51.442;6.996;2023-08-06T01:49:20;5.75;;;3.45;;
4569;SDS011;2297;51.442;6.996;2023-08-06T01:51:47;6.55;;;3.20;;
4569;SDS011;2297;51.442;6.996;2023-08-06T01:54:15;4.38;;;3.03;;
4569;SDS011;2297;51.442;6.996;2023-08-06T01:56:42;5.65;;;3.40;;
4569;SDS011;2297;51.442;6.996;2023-08-06T01:59:08;4.50;;;3.10;;
4569;SDS011;2297;51.442;6.996;2023-08-06T02:01:35;3.60;;;3.00;;
4569;SDS011;2297;51.442;6.996;2023-08-06T02:04:02;4.60;;;3.10;;
4569;SDS011;2297;51.442;6.996;2023-08-06T02:06:28;4.57;;;3.10;;
4569;SDS011;2297;51.442;6.996;2023-08-06T02:08:55;6.90;;;2.90;;
4569;SDS011;2297;51.442;6.996;2023-08-06T02:11:23;4.13;;;3.50;;
4569;SDS011;2297;51.442;6.996;2023-08-06T02:13:50;9.82;;;3.47;;
4569;SDS011;2297;51.442;6.996;2023-08-06T02:16:16;5.80;;;3.03;;
4569;SDS011;2297;51.442;6.996;2023-08-06T02:18:43;7.07;;;3.45;;
4569;SDS011;2297;51.442;6.996;2023-08-06T02:21:10;4.13;;;3.22;;
4569;SDS011;2297;51.442;6.996;2023-08-06T02:23:36;8.05;;;3.47;;
4569;SDS011;2297;51.442;6.996;2023-08-06T02:26:03;5.90;;;3.30;;
4569;SDS011;2297;51.442;6.996;2023-08-06T02:28:32;5.13;;;2.88;;
4569;SDS011;2297;51.442;6.996;2023-08-06T02:30:59;5.28;;;3.40;;
4569;SDS011;2297;51.442;6.996;2023-08-06T02:33:25;6.10;;;3.20;;
4569;SDS011;2297;51.442;6.996;2023-08-06T02:35:58;9.18;;;5.25;;
4569;SDS011;2297;51.442;6.996;2023-08-06T02:38:26;8.55;;;5.90;;
4569;SDS011;2297;51.442;6.996;2023-08-06T02:40:52;18.13;;;10.15;;
4569;SDS011;2297;51.442;6.996;2023-08-06T02:43:19;8.23;;;4.43;;
4569;SDS011;2297;51.442;6.996;2023-08-06T02:45:47;7.10;;;4.63;;
4569;SDS011;2297;51.442;6.996;2023-08-06T02:48:14;5.75;;;3.13;;
4569;SDS011;2297;51.442;6.996;2023-08-06T02:50:41;4.38;;;3.00;;
4569;SDS011;2297;51.442;6.996;2023-08-06T02:53:08;11.30;;;4.70;;
4569;SDS011;2297;51.442;6.996;2023-08-06T02:55:35;5.35;;;3.65;;
4569;SDS011;2297;51.442;6.996;2023-08-06T02:58:02;4.68;;;3.33;;
4569;SDS011;2297;51.442;6.996;2023-08-06T03:00:29;6.43;;;2.83;;
4569;SDS011;2297;51.442;6.996;2023-08-06T03:02:57;4.40;;;3.30;;
4569;SDS011;2297;51.442;6.996;2023-08-06T03:05:23;5.45;;;3.13;;
4569;SDS011;2297;51.442;6.996;2023-08-06T03:07:50;5.82;;;3.33;;
4569;SDS011;2297;51.442;6.996;2023-08-06T03:10:16;4.10;;;3.15;;
4569;SDS011;2297;51.442;6.996;2023-08-06T03:12:43;4.22;;;3.17;;
4569;SDS011;2297;51.442;6.996;2023-08-06T03:15:10;5.88;;;3.03;;
4569;SDS011;2297;51.442;6.996;2023-08-06T03:17:36;7.70;;;3.78;;
4569;SDS011;2297;51.442;6.996;2023-08-06T03:20:06;6.50;;;3.80;;
4569;SDS011;2297;51.442;6.996;2023-08-06T03:22:33;6.20;;;2.97;;
4569;SDS011;2297;51.442;6.996;2023-08-06T03:25:00;4.43;;;2.97;;
4569;SDS011;2297;51.442;6.996;2023-08-06T03:27:26;4.32;;;3.25;;
4569;SDS011;2297;51.442;6.996;2023-08-06T03:29:53;3.95;;;2.75;;
4569;SDS011;2297;51.442;6.996;2023-08-06T03:32:20;4.45;;;2.70;;
4569;SDS011;2297;51.442;6.996;2023-08-06T03:34:47;5.80;;;3.35;;
4569;SDS011;2297;51.442;6.996;2023-08-06T03:37:15;4.50;;;3.13;;
4569;SDS011;2297;51.442;6.996;2023-08-06T03:39:41;4.32;;;2.78;;
4569;SDS011;2297;51.442;6.996;2023-08-06T03:42:08;3.70;;;2.92;;
4569;SDS011;2297;51.442;6.996;2023-08-06T03:44:35;4.43;;;3.17;;
4569;SDS011;2297;51.442;6.996;2023-08-06T03:47:01;5.05;;;3.38;;
4569;SDS011;2297;51.442;6.996;2023-08-06T03:49:28;4.05;;;3.30;;
4569;SDS011;2297;51.442;6.996;2023-08-06T03:51:55;5.80;;;3.05;;
4569;SDS011;2297;51.442;6.996;2023-08-06T03:54:23;4.88;;;2.95;;
4569;SDS011;2297;51.442;6.996;2023-08-06T03:56:49;5.70;;;2.90;;
4569;SDS011;2297;51.442;6.996;2023-08-06T03:59:16;9.18;;;2.78;;
4569;SDS011;2297;51.442;6.996;2023-08-06T04:01:45;4.32;;;3.08;;
4569;SDS011;2297;51.442;6.996;2023-08-06T04:04:11;3.28;;;2.83;;
4569;SDS011;2297;51.442;6.996;2023-08-06T04:06:38;3.40;;;2.92;;
4569;SDS011;2297;51.442;6.996;2023-08-06T04:09:05;4.65;;;2.65;;
4569;SDS011;2297;51.442;6.996;2023-08-06T04:11:33;3.72;;;2.88;;
4569;SDS011;2297;51.442;6.996;2023-08-06T04:13:59;4.38;;;2.78;;
4569;SDS011;2297;51.442;6.996;2023-08-06T04:16:26;3.67;;;3.08;;
4569;SDS011;2297;51.442;6.996;2023-08-06T04:18:53;6.25;;;2.85;;
4569;SDS011;2297;51.442;6.996;2023-08-06T04:21:20;5.40;;;3.03;;
4569;SDS011;2297;51.442;6.996;2023-08-06T04:23:50;9.45;;;3.20;;
4569;SDS011;2297;51.442;6.996;2023-08-06T04:26:16;4.10;;;2.92;;
4569;SDS011;2297;51.442;6.996;2023-08-06T04:28:44;6.30;;;3.45;;
4569;SDS011;2297;51.442;6.996;2023-08-06T04:31:11;3.22;;;2.72;;
4569;SDS011;2297;51.442;6.996;2023-08-06T04:33:47;3.63;;;2.88;;
4569;SDS011;2297;51.442;6.996;2023-08-06T04:36:13;4.25;;;2.63;;
4569;SDS011;2297;51.442;6.996;2023-08-06T04:38:40;4.15;;;3.00;;
4569;SDS011;2297;51.442;6.996;2023-08-06T04:41:10;4.25;;;3.28;;
4569;SDS011;2297;51.442;6.996;2023-08-06T04:43:36;3.83;;;3.05;;
4569;SDS011;2297;51.442;6.996;2023-08-06T04:46:05;4.65;;;2.80;;
4569;SDS011;2297;51.442;6.996;2023-08-06T04:48:31;3.40;;;2.83;;
4569;SDS011;2297;51.442;6.996;2023-08-06T04:50:58;4.32;;;2.85;;
4569;SDS011;2297;51.442;6.996;2023-08-06T04:53:25;5.40;;;3.03;;
4569;SDS011;2297;51.442;6.996;2023-08-06T04:55:51;6.75;;;2.97;;
4569;SDS011;2297;51.442;6.996;2023-08-06T04:58:18;3.72;;;2.88;;
4569;SDS011;2297;51.442;6.996;2023-08-06T05:00:45;7.47;;;2.88;;
4569;SDS011;2297;51.442;6.996;2023-08-06T05:03:13;5.15;;;2.58;;
4569;SDS011;2297;51.442;6.996;2023-08-06T05:05:39;3.67;;;2.85;;
4569;SDS011;2297;51.442;6.996;2023-08-06T05:08:06;5.78;;;3.10;;
4569;SDS011;2297;51.442;6.996;2023-08-06T05:10:33;6.18;;;3.25;;
4569;SDS011;2297;51.442;6.996;2023-08-06T05:13:00;4.20;;;3.15;;
4569;SDS011;2297;51.442;6.996;2023-08-06T05:15:26;3.08;;;2.40;;
4569;SDS011;2297;51.442;6.996;2023-08-06T05:17:53;3.75;;;3.03;;
4569;SDS011;2297;51.442;6.996;2023-08-06T05:20:26;3.58;;;2.63;;
4569;SDS011;2297;51.442;6.996;2023-08-06T05:22:53;5.78;;;2.83;;
4569;SDS011;2297;51.442;6.996;2023-08-06T05:25:19;5.78;;;2.65;;
4569;SDS011;2297;51.442;6.996;2023-08-06T05:27:46;4.63;;;2.38;;
4569;SDS011;2297;51.442;6.996;2023-08-06T05:30:13;4.95;;;2.80;;
4569;SDS011;2297;51.442;6.996;2023-08-06T05:32:39;6.60;;;2.60;;
4569;SDS011;2297;51.442;6.996;2023-08-06T05:35:06;3.63;;;2.63;;
4569;SDS011;2297;51.442;6.996;2023-08-06T05:37:35;5.47;;;2.67;;
4569;SDS011;2297;51.442;6.996;2023-08-06T05:40:01;3.97;;;2.20;;
4569;SDS011;2297;51.442;6.996;2023-08-06T05:42:29;3.85;;;2.60;;
4569;SDS011;2297;51.442;6.996;2023-08-06T05:44:55;3.88;;;2.60;;
4569;SDS011;2297;51.442;6.996;2023-08-06T05:47:22;5.32;;;2.30;;
4569;SDS011;2297;51.442;6.996;2023-08-06T05:49:49;4.10;;;2.53;;
4569;SDS011;2297;51.442;6.996;2023-08-06T05:52:15;5.35;;;2.42;;
4569;SDS011;2297;51.442;6.996;2023-08-06T05:54:43;3.63;;;2.50;;
4569;SDS011;2297;51.442;6.996;2023-08-06T05:57:10;4.18;;;2.42;;
4569;SDS011;2297;51.442;6.996;2023-08-06T05:59:37;4.15;;;2.58;;
4569;SDS011;2297;51.442;6.996;2023-08-06T06:02:04;4.20;;;2.60;;
4569;SDS011;2297;51.442;6.996;2023-08-06T06:04:30;4.85;;;3.00;;
4569;SDS011;2297;51.442;6.996;2023-08-06T06:06:57;3.45;;;2.42;;
4569;SDS011;2297;51.442;6.996;2023-08-06T06:09:23;3.58;;;2.63;;
4569;SDS011;2297;51.442;6.996;2023-08-06T06:11:52;3.65;;;2.53;;
4569;SDS011;2297;51.442;6.996;2023-08-06T06:14:18;4.32;;;2.45;;
4569;SDS011;2297;51.442;6.996;2023-08-06T06:16:45;5.45;;;2.65;;
4569;SDS011;2297;51.442;6.996;2023-08-06T06:19:12;5.65;;;2.50;;
4569;SDS011;2297;51.442;6.996;2023-08-06T06:21:39;4.28;;;2.30;;
4569;SDS011;2297;51.442;6.996;2023-08-06T06:24:06;3.55;;;2.30;;
4569;SDS011;2297;51.442;6.996;2023-08-06T06:26:33;5.55;;;2.45;;
4569;SDS011;2297;51.442;6.996;2023-08-06T06:29:01;4.38;;;2.30;;
4569;SDS011;2297;51.442;6.996;2023-08-06T06:31:28;8.38;;;2.50;;
4569;SDS011;2297;51.442;6.996;2023-08-06T06:33:54;4.60;;;2.80;;
4569;SDS011;2297;51.442;6.996;2023-08-06T06:36:21;4.20;;;2.22;;
4569;SDS011;2297;51.442;6.996;2023-08-06T06:38:48;4.40;;;2.33;;
4569;SDS011;2297;51.442;6.996;2023-08-06T06:41:15;4.72;;;2.40;;
4569;SDS011;2297;51.442;6.996;2023-08-06T06:43:42;4.28;;;2.35;;
4569;SDS011;2297;51.442;6.996;2023-08-06T06:46:10;4.82;;;1.98;;
4569;SDS011;2297;51.442;6.996;2023-08-06T06:48:37;4.00;;;2.10;;
4569;SDS011;2297;51.442;6.996;2023-08-06T06:51:03;3.45;;;1.80;;
4569;SDS011;2297;51.442;6.996;2023-08-06T06:53:30;4.45;;;2.00;;
4569;SDS011;2297;51.442;6.996;2023-08-06T06:56:01;3.55;;;2.08;;
4569;SDS011;2297;51.442;6.996;2023-08-06T06:58:29;6.47;;;2.20;;
4569;SDS011;2297;51.442;6.996;2023-08-06T07:00:57;4.90;;;2.58;;
4569;SDS011;2297;51.442;6.996;2023-08-06T07:03:25;4.78;;;2.10;;
4569;SDS011;2297;51.442;6.996;2023-08-06T07:05:56;3.97;;;2.33;;
4569;SDS011;2297;51.442;6.996;2023-08-06T07:08:24;3.75;;;2.15;;
4569;SDS011;2297;51.442;6.996;2023-08-06T07:10:51;4.00;;;2.20;;
4569;SDS011;2297;51.442;6.996;2023-08-06T07:13:26;2.92;;;1.95;;
4569;SDS011;2297;51.442;6.996;2023-08-06T07:15:54;4.22;;;2.53;;
4569;SDS011;2297;51.442;6.996;2023-08-06T07:18:23;4.30;;;2.72;;
4569;SDS011;2297;51.442;6.996;2023-08-06T07:20:52;4.38;;;2.30;;
4569;SDS011;2297;51.442;6.996;2023-08-06T07:23:34;3.17;;;2.40;;
4569;SDS011;2297;51.442;6.996;2023-08-06T07:26:01;4.63;;;2.50;;
4569;SDS011;2297;51.442;6.996;2023-08-06T07:28:27;3.65;;;2.33;;
4569;SDS011;2297;51.442;6.996;2023-08-06T07:30:54;4.63;;;2.20;;
4569;SDS011;2297;51.442;6.996;2023-08-06T07:33:21;6.25;;;2.42;;
4569;SDS011;2297;51.442;6.996;2023-08-06T07:35:47;4.95;;;2.17;;
4569;SDS011;2297;51.442;6.996;2023-08-06T07:38:15;3.47;;;2.13;;
4569;SDS011;2297;51.442;6.996;2023-08-06T07:40:42;4.47;;;1.85;;
4569;SDS011;2297;51.442;6.996;2023-08-06T07:43:09;4.75;;;2.10;;
4569;SDS011;2297;51.442;6.996;2023-08-06T07:45:36;7.38;;;2.63;;
4569;SDS011;2297;51.442;6.996;2023-08-06T07:48:03;4.22;;;2.20;;
4569;SDS011;2297;51.442;6.996;2023-08-06T07:50:31;4.95;;;2.30;;
4569;SDS011;2297;51.442;6.996;2023-08-06T07:52:58;3.42;;;2.25;;
4569;SDS011;2297;51.442;6.996;2023-08-06T07:55:26;3.70;;;2.35;;
4569;SDS011;2297;51.442;6.996;2023-08-06T07:57:53;3.47;;;1.75;;
4569;SDS011;2297;51.442;6.996;2023-08-06T08:00:20;3.08;;;2.17;;
4569;SDS011;2297;51.442;6.996;2023-08-06T08:02:46;3.53;;;2.10;;
4569;SDS011;2297;51.442;6.996;2023-08-06T08:05:13;2.45;;;2.05;;
4569;SDS011;2297;51.442;6.996;2023-08-06T08:07:40;7.25;;;1.95;;
4569;SDS011;2297;51.442;6.996;2023-08-06T08:10:07;2.53;;;1.75;;
4569;SDS011;2297;51.442;6.996;2023-08-06T08:12:35;3.22;;;2.00;;
4569;SDS011;2297;51.442;6.996;2023-08-06T08:15:02;4.55;;;2.00;;
4569;SDS011;2297;51.442;6.996;2023-08-06T08:17:29;3.38;;;2.13;;
4569;SDS011;2297;51.442;6.996;2023-08-06T08:19:56;4.50;;;2.00;;
4569;SDS011;2297;51.442;6.996;2023-08-06T08:22:22;4.07;;;2.20;;
4569;SDS011;2297;51.442;6.996;2023-08-06T08:24:49;3.28;;;2.20;;
4569;SDS011;2297;51.442;6.996;2023-08-06T08:27:16;4.55;;;2.13;;
4569;SDS011;2297;51.442;6.996;2023-08-06T08:29:44;7.13;;;2.20;;
4569;SDS011;2297;51.442;6.996;2023-08-06T08:32:11;3.35;;;2.20;;
4569;SDS011;2297;51.442;6.996;2023-08-06T08:34:37;5.50;;;2.13;;
4569;SDS011;2297;51.442;6.996;2023-08-06T08:37:04;2.85;;;2.03;;
4569;SDS011;2297;51.442;6.996;2023-08-06T08:39:31;3.25;;;2.00;;
4569;SDS011;2297;51.442;6.996;2023-08-06T08:41:57;4.00;;;2.60;;
4569;SDS011;2297;51.442;6.996;2023-08-06T08:44:25;3.22;;;2.30;;
4569;SDS011;2297;51.442;6.996;2023-08-06T08:46:55;3.75;;;2.20;;
4569;SDS011;2297;51.442;6.996;2023-08-06T08:49:23;2.97;;;2.28;;
4569;SDS011;2297;51.442;6.996;2023-08-06T08:51:50;5.22;;;2.50;;
4569;SDS011;2297;51.442;6.996;2023-08-06T08:54:20;3.08;;;2.10;;
4569;SDS011;2297;51.442;6.996;2023-08-06T08:56:59;3.03;;;2.33;;
4569;SDS011;2297;51.442;6.996;2023-08-06T08:59:27;5.35;;;2.70;;
4569;SDS011;2297;51.442;6.996;2023-08-06T09:01:55;4.53;;;2.33;;
4569;SDS011;2297;51.442;6.996;2023-08-06T09:04:24;3.38;;;2.10;;
4569;SDS011;2297;51.442;6.996;2023-08-06T09:06:53;5.40;;;2.40;;
4569;SDS011;2297;51.442;6.996;2023-08-06T09:09:25;2.42;;;2.10;;
4569;SDS011;2297;51.442;6.996;2023-08-06T09:11:54;3.67;;;2.50;;
4569;SDS011;2297;51.442;6.996;2023-08-06T09:14:26;2.65;;;2.13;;
4569;SDS011;2297;51.442;6.996;2023-08-06T09:16:53;5.13;;;2.40;;
4569;SDS011;2297;51.442;6.996;2023-08-06T09:19:21;2.72;;;2.17;;
4569;SDS011;2297;51.442;6.996;2023-08-06T09:21:50;20.55;;;2.22;;
4569;SDS011;2297;51.442;6.996;2023-08-06T09:24:17;3.10;;;1.90;;
4569;SDS011;2297;51.442;6.996;2023-08-06T09:26:45;9.00;;;2.47;;
4569;SDS011;2297;51.442;6.996;2023-08-06T09:29:11;4.57;;;2.33;;
4569;SDS011;2297;51.442;6.996;2023-08-06T09:31:41;6.72;;;2.80;;
4569;SDS011;2297;51.442;6.996;2023-08-06T09:34:11;4.50;;;2.35;;
4569;SDS011;2297;51.442;6.996;2023-08-06T09:36:43;4.07;;;2.80;;
4569;SDS011;2297;51.442;6.996;2023-08-06T09:39:12;3.07;;;2.40;;
4569;SDS011;2297;51.442;6.996;2023-08-06T09:41:39;4.80;;;2.42;;
4569;SDS011;2297;51.442;6.996;2023-08-06T09:44:06;4.88;;;2.67;;
4569;SDS011;2297;51.442;6.996;2023-08-06T09:46:42;6.90;;;3.20;;
4569;SDS011;2297;51.442;6.996;2023-08-06T09:49:08;2.90;;;2.60;;
4569;SDS011;2297;51.442;6.996;2023-08-06T09:51:35;4.05;;;3.03;;
4569;SDS011;2297;51.442;6.996;2023-08-06T09:54:18;5.03;;;2.72;;
4569;SDS011;2297;51.442;6.996;2023-08-06T09:56:45;4.95;;;3.80;;
4569;SDS011;2297;51.442;6.996;2023-08-06T09:59:11;8.60;;;3.75;;
4569;SDS011;2297;51.442;6.996;2023-08-06T10:01:40;5.10;;;3.67;;
4569;SDS011;2297;51.442;6.996;2023-08-06T10:04:08;6.45;;;3.55;;
4569;SDS011;2297;51.442;6.996;2023-08-06T10:06:36;5.75;;;3.83;;
4569;SDS011;2297;51.442;6.996;2023-08-06T10:09:04;6.05;;;4.07;;
4569;SDS011;2297;51.442;6.996;2023-08-06T10:11:32;6.63;;;4.28;;
4569;SDS011;2297;51.442;6.996;2023-08-06T10:14:00;10.95;;;4.88;;
4569;SDS011;2297;51.442;6.996;2023-08-06T10:16:30;7.60;;;5.03;;
4569;SDS011;2297;51.442;6.996;2023-08-06T10:18:57;9.00;;;4.93;;
4569;SDS011;2297;51.442;6.996;2023-08-06T10:21:24;4.88;;;4.32;;
4569;SDS011;2297;51.442;6.996;2023-08-06T10:23:53;6.75;;;4.68;;
4569;SDS011;2297;51.442;6.996;2023-08-06T10:26:20;6.55;;;4.80;;
4569;SDS011;2297;51.442;6.996;2023-08-06T10:28:52;7.43;;;4.88;;
4569;SDS011;2297;51.442;6.996;2023-08-06T10:31:19;8.02;;;4.80;;
4569;SDS011;2297;51.442;6.996;2023-08-06T10:33:46;6.55;;;5.13;;
4569;SDS011;2297;51.442;6.996;2023-08-06T10:36:14;5.40;;;4.80;;
4569;SDS011;2297;51.442;6.996;2023-08-06T10:38:44;5.20;;;4.38;;
4569;SDS011;2297;51.442;6.996;2023-08-06T10:41:15;6.68;;;4.20;;
4569;SDS011;2297;51.442;6.996;2023-08-06T10:43:43;4.28;;;3.67;;
4569;SDS011;2297;51.442;6.996;2023-08-06T10:46:20;6.85;;;4.13;;
4569;SDS011;2297;51.442;6.996;2023-08-06T10:48:48;5.13;;;3.90;;
4569;SDS011;2297;51.442;6.996;2023-08-06T10:51:15;8.95;;;4.30;;
4569;SDS011;2297;51.442;6.996;2023-08-06T10:53:42;5.18;;;3.80;;
4569;SDS011;2297;51.442;6.996;2023-08-06T10:59:14;4.38;;;3.63;;
4569;SDS011;2297;51.442;6.996;2023-08-06T11:01:42;5.45;;;4.05;;
4569;SDS011;2297;51.442;6.996;2023-08-06T11:04:09;4.57;;;3.90;;
4569;SDS011;2297;51.442;6.996;2023-08-06T11:06:41;5.80;;;4.35;;
4569;SDS011;2297;51.442;6.996;2023-08-06T11:09:09;7.00;;;4.28;;
4569;SDS011;2297;51.442;6.996;2023-08-06T11:11:36;5.00;;;3.97;;
4569;SDS011;2297;51.442;6.996;2023-08-06T11:14:03;8.35;;;4.45;;
4569;SDS011;2297;51.442;6.996;2023-08-06T11:16:30;4.97;;;4.38;;
4569;SDS011;2297;51.442;6.996;2023-08-06T11:18:58;7.05;;;4.72;;
4569;SDS011;2297;51.442;6.996;2023-08-06T11:21:25;5.68;;;4.55;;
4569;SDS011;2297;51.442;6.996;2023-08-06T11:23:52;5.25;;;4.75;;
4569;SDS011;2297;51.442;6.996;2023-08-06T11:26:19;6.47;;;4.88;;
4569;SDS011;2297;51.442;6.996;2023-08-06T11:28:46;5.50;;;3.67;;
4569;SDS011;2297;51.442;6.996;2023-08-06T11:31:18;2.47;;;2.28;;
4569;SDS011;2297;51.442;6.996;2023-08-06T11:33:45;2.95;;;2.00;;
4569;SDS011;2297;51.442;6.996;2023-08-06T11:36:13;4.25;;;1.70;;
4569;SDS011;2297;51.442;6.996;2023-08-06T11:38:40;3.70;;;2.50;;
4569;SDS011;2297;51.442;6.996;2023-08-06T11:41:06;4.07;;;2.40;;
4569;SDS011;2297;51.442;6.996;2023-08-06T11:43:33;2.88;;;1.92;;
4569;SDS011;2297;51.442;6.996;2023-08-06T11:46:00;2.53;;;2.33;;
4569;SDS011;2297;51.442;6.996;2023-08-06T11:51:23;3.20;;;2.90;;
4569;SDS011;2297;51.442;6.996;2023-08-06T11:53:51;4.22;;;3.17;;
4569;SDS011;2297;51.442;6.996;2023-08-06T11:56:17;4.93;;;4.43;;
4569;SDS011;2297;51.442;6.996;2023-08-06T11:58:44;5.72;;;4.65;;
4569;SDS011;2297;51.442;6.996;2023-08-06T12:01:10;8.95;;;5.50;;
4569;SDS011;2297;51.442;6.996;2023-08-06T12:03:38;6.40;;;4.97;;
4569;SDS011;2297;51.442;6.996;2023-08-06T12:06:05;5.75;;;4.82;;
4569;SDS011;2297;51.442;6.996;2023-08-06T12:08:36;7.55;;;5.50;;
4569;SDS011;2297;51.442;6.996;2023-08-06T12:11:03;10.68;;;8.15;;
4569;SDS011;2297;51.442;6.996;2023-08-06T12:13:30;5.95;;;4.97;;
4569;SDS011;2297;51.442;6.996;2023-08-06T12:15:56;5.45;;;4.43;;
4569;SDS011;2297;51.442;6.996;2023-08-06T12:18:23;6.32;;;4.43;;
4569;SDS011;2297;51.442;6.996;2023-08-06T12:20:50;4.60;;;3.80;;
4569;SDS011;2297;51.442;6.996;2023-08-06T12:23:16;3.83;;;2.80;;
4569;SDS011;2297;51.442;6.996;2023-08-06T12:25:45;4.95;;;2.75;;
4569;SDS011;2297;51.442;6.996;2023-08-06T12:28:12;4.78;;;2.47;;
4569;SDS011;2297;51.442;6.996;2023-08-06T12:30:38;3.55;;;2.22;;
4569;SDS011;2297;51.442;6.996;2023-08-06T12:33:08;6.40;;;2.35;;
4569;SDS011;2297;51.442;6.996;2023-08-06T12:35:34;4.72;;;2.55;;
4569;SDS011;2297;51.442;6.996;2023-08-06T12:38:02;4.63;;;2.38;;
4569;SDS011;2297;51.442;6.996;2023-08-06T12:40:29;3.00;;;2.30;;
4569;SDS011;2297;51.442;6.996;2023-08-06T12:42:57;4.00;;;2.55;;
4569;SDS011;2297;51.442;6.996;2023-08-06T12:45:24;3.08;;;2.65;;
4569;SDS011;2297;51.442;6.996;2023-08-06T12:47:51;5.22;;;3.10;;
4569;SDS011;2297;51.442;6.996;2023-08-06T12:50:17;4.72;;;3.30;;
4569;SDS011;2297;51.442;6.996;2023-08-06T12:52:44;4.18;;;3.35;;
4569;SDS011;2297;51.442;6.996;2023-08-06T12:55:10;7.60;;;5.07;;
4569;SDS011;2297;51.442;6.996;2023-08-06T12:57:37;4.20;;;3.55;;
4569;SDS011;2297;51.442;6.996;2023-08-06T13:00:06;4.20;;;3.78;;
4569;SDS011;2297;51.442;6.996;2023-08-06T13:02:34;5.85;;;3.88;;
4569;SDS011;2297;51.442;6.996;2023-08-06T13:05:01;6.13;;;3.85;;
4569;SDS011;2297;51.442;6.996;2023-08-06T13:07:30;5.43;;;3.33;;
4569;SDS011;2297;51.442;6.996;2023-08-06T13:09:57;5.78;;;3.78;;
4569;SDS011;2297;51.442;6.996;2023-08-06T13:12:24;4.18;;;3.17;;
4569;SDS011;2297;51.442;6.996;2023-08-06T13:14:50;4.88;;;3.17;;
4569;SDS011;2297;51.442;6.996;2023-08-06T13:17:19;3.65;;;3.10;;
4569;SDS011;2297;51.442;6.996;2023-08-06T13:19:46;3.95;;;3.17;;
4569;SDS011;2297;51.442;6.996;2023-08-06T13:22:12;6.40;;;3.20;;
4569;SDS011;2297;51.442;6.996;2023-08-06T13:24:39;4.38;;;3.40;;
4569;SDS011;2297;51.442;6.996;2023-08-06T13:27:06;4.82;;;3.42;;
4569;SDS011;2297;51.442;6.996;2023-08-06T13:29:34;4.30;;;3.35;;
4569;SDS011;2297;51.442;6.996;2023-08-06T13:32:01;5.22;;;3.40;;
4569;SDS011;2297;51.442;6.996;2023-08-06T13:34:29;3.60;;;3.00;;
4569;SDS011;2297;51.442;6.996;2023-08-06T13:36:55;3.90;;;3.10;;
4569;SDS011;2297;51.442;6.996;2023-08-06T13:39:22;4.07;;;3.10;;
4569;SDS011;2297;51.442;6.996;2023-08-06T13:41:49;4.30;;;3.45;;
4569;SDS011;2297;51.442;6.996;2023-08-06T13:44:15;3.65;;;2.88;;
4569;SDS011;2297;51.442;6.996;2023-08-06T13:46:42;3.70;;;3.30;;
4569;SDS011;2297;51.442;6.996;2023-08-06T13:49:09;4.30;;;3.40;;
4569;SDS011;2297;51.442;6.996;2023-08-06T13:51:38;3.95;;;3.20;;
4569;SDS011;2297;51.442;6.996;2023-08-06T13:54:05;4.43;;;3.53;;
4569;SDS011;2297;51.442;6.996;2023-08-06T13:56:32;4.88;;;3.75;;
4569;SDS011;2297;51.442;6.996;2023-08-06T13:58:59;6.63;;;3.70;;
4569;SDS011;2297;51.442;6.996;2023-08-06T14:01:25;5.88;;;3.60;;
4569;SDS011;2297;51.442;6.996;2023-08-06T14:03:52;4.20;;;2.95;;
4569;SDS011;2297;51.442;6.996;2023-08-06T14:06:19;6.45;;;3.72;;
4569;SDS011;2297;51.442;6.996;2023-08-06T14:08:47;6.38;;;3.67;;
4569;SDS011;2297;51.442;6.996;2023-08-06T14:11:14;6.63;;;3.88;;
4569;SDS011;2297;51.442;6.996;2023-08-06T14:13:41;6.13;;;3.70;;
4569;SDS011;2297;51.442;6.996;2023-08-06T14:16:07;4.70;;;3.97;;
4569;SDS011;2297;51.442;6.996;2023-08-06T14:18:34;4.22;;;3.55;;
4569;SDS011;2297;51.442;6.996;2023-08-06T14:21:02;6.82;;;3.83;;
4569;SDS011;2297;51.442;6.996;2023-08-06T14:23:29;6.53;;;4.20;;
4569;SDS011;2297;51.442;6.996;2023-08-06T14:25:57;6.60;;;4.15;;
4569;SDS011;2297;51.442;6.996;2023-08-06T14:28:24;6.72;;;3.90;;
4569;SDS011;2297;51.442;6.996;2023-08-06T14:30:50;10.82;;;4.00;;
4569;SDS011;2297;51.442;6.996;2023-08-06T14:33:17;10.18;;;3.67;;
4569;SDS011;2297;51.442;6.996;2023-08-06T14:35:44;6.03;;;3.47;;
4569;SDS011;2297;51.442;6.996;2023-08-06T14:38:10;5.18;;;3.30;;
4569;SDS011;2297;51.442;6.996;2023-08-06T14:40:37;5.60;;;3.65;;
4569;SDS011;2297;51.442;6.996;2023-08-06T14:43:06;5.82;;;3.80;;
4569;SDS011;2297;51.442;6.996;2023-08-06T14:45:32;4.22;;;3.25;;
4569;SDS011;2297;51.442;6.996;2023-08-06T14:47:59;5.35;;;3.38;;
4569;SDS011;2297;51.442;6.996;2023-08-06T14:50:26;5.15;;;3.13;;
4569;SDS011;2297;51.442;6.996;2023-08-06T14:52:52;5.55;;;3.40;;
4569;SDS011;2297;51.442;6.996;2023-08-06T14:55:23;4.70;;;3.25;;
4569;SDS011;2297;51.442;6.996;2023-08-06T14:57:50;5.47;;;3.30;;
4569;SDS011;2297;51.442;6.996;2023-08-06T15:00:19;5.80;;;3.38;;
4569;SDS011;2297;51.442;6.996;2023-08-06T15:02:46;5.75;;;3.35;;
4569;SDS011;2297;51.442;6.996;2023-08-06T15:05:13;6.15;;;3.90;;
4569;SDS011;2297;51.442;6.996;2023-08-06T15:07:39;7.30;;;3.85;;
4569;SDS011;2297;51.442;6.996;2023-08-06T15:10:06;6.65;;;3.40;;
4569;SDS011;2297;51.442;6.996;2023-08-06T15:15:56;4.25;;;3.00;;
4569;SDS011;2297;51.442;6.996;2023-08-06T15:18:23;4.35;;;2.97;;
4569;SDS011;2297;51.442;6.996;2023-08-06T15:20:49;4.80;;;2.88;;
4569;SDS011;2297;51.442;6.996;2023-08-06T15:23:16;3.05;;;2.30;;
4569;SDS011;2297;51.442;6.996;2023-08-06T15:25:43;5.45;;;2.80;;